sensor_id;sensor_type;location;lat;lon;timestamp;P1;durP1;ratioP1;P2;durP2;ratioP2
6953;SDS011;3516;47.980;8.808;2023-04-06T04:52:33;5.55;;;5.03;;
6953;SDS011;3516;47.980;8.808;2023-04-06T04:55:00;6.93;;;5.65;;
6953;SDS011;3516;47.980;8.808;2023-04-06T04:57:27;5.35;;;4.85;;
6953;SDS011;3516;47.980;8.808;2023-04-06T04:59:54;6.25;;;5.65;;
6953;SDS011;3516;47.980;8.808;2023-04-06T05:02:22;5.30;;;4.90;;
6953;SDS011;3516;47.980;8.808;2023-04-06T05:04:49;5.70;;;4.53;;
6953;SDS011;3516;47.980;8.808;2023-04-06T05:07:16;6.15;;;5.20;;
6953;SDS011;3516;47.980;8.808;2023-04-06T05:09:47;6.18;;;5.43;;
6953;SDS011;3516;47.980;8.808;2023-04-06T05:12:14;5.57;;;5.07;;
6953;SDS011;3516;47.980;8.808;2023-04-06T05:14:41;5.70;;;4.85;;
6953;SDS011;3516;47.980;8.808;2023-04-06T05:17:08;6.07;;;5.25;;
6953;SDS011;3516;47.980;8.808;2023-04-06T05:19:35;6.50;;;5.43;;
6953;SDS011;3516;47.980;8.808;2023-04-06T05:22:02;4.82;;;4.53;;
6953;SDS011;3516;47.980;8.808;2023-04-06T05:24:29;5.65;;;5.20;;
6953;SDS011;3516;47.980;8.808;2023-04-06T05:26:58;6.05;;;5.15;;
6953;SDS011;3516;47.980;8.808;2023-04-06T05:29:25;5.18;;;4.68;;
6953;SDS011;3516;47.980;8.808;2023-04-06T05:31:53;5.20;;;4.80;;
6953;SDS011;3516;47.980;8.808;2023-04-06T05:34:20;6.00;;;5.32;;
6953;SDS011;3516;47.980;8.808;2023-04-06T05:36:47;6.25;;;5.18;;
6953;SDS011;3516;47.980;8.808;2023-04-06T05:39:14;5.65;;;5.00;;
6953;SDS011;3516;47.980;8.808;2023-04-06T05:41:42;7.05;;;5.53;;
6953;SDS011;3516;47.980;8.808;2023-04-06T05:44:10;6.60;;;4.93;;
6953;SDS011;3516;47.980;8.808;2023-04-06T05:46:37;5.40;;;4.82;;
6953;SDS011;3516;47.980;8.808;2023-04-06T05:49:04;5.22;;;4.72;;
6953;SDS011;3516;47.980;8.808;2023-04-06T05:51:31;5.82;;;5.32;;
6953;SDS011;3516;47.980;8.808;2023-04-06T05:53:58;6.03;;;5.40;;
6953;SDS011;3516;47.980;8.808;2023-04-06T05:56:25;5.80;;;5.20;;
6953;SDS011;3516;47.980;8.808;2023-04-06T05:58:54;6.63;;;5.65;;
6953;SDS011;3516;47.980;8.808;2023-04-06T06:01:22;6.80;;;6.20;;
6953;SDS011;3516;47.980;8.808;2023-04-06T06:03:50;22.30;;;13.40;;
6953;SDS011;3516;47.980;8.808;2023-04-06T06:06:17;31.67;;;16.10;;
6953;SDS011;3516;47.980;8.808;2023-04-06T06:08:44;17.63;;;10.65;;
6953;SDS011;3516;47.980;8.808;2023-04-06T06:11:11;10.13;;;6.93;;
6953;SDS011;3516;47.980;8.808;2023-04-06T06:13:38;11.90;;;6.43;;
6953;SDS011;3516;47.980;8.808;2023-04-06T06:16:05;9.00;;;6.78;;
6953;SDS011;3516;47.980;8.808;2023-04-06T06:18:34;7.65;;;6.25;;
6953;SDS011;3516;47.980;8.808;2023-04-06T06:21:01;11.77;;;6.43;;
6953;SDS011;3516;47.980;8.808;2023-04-06T06:23:29;8.82;;;6.35;;
6953;SDS011;3516;47.980;8.808;2023-04-06T06:25:56;9.07;;;6.68;;
6953;SDS011;3516;47.980;8.808;2023-04-06T06:28:24;8.13;;;7.32;;
6953;SDS011;3516;47.980;8.808;2023-04-06T06:30:51;9.95;;;7.28;;
6953;SDS011;3516;47.980;8.808;2023-04-06T06:33:19;10.20;;;6.57;;
6953;SDS011;3516;47.980;8.808;2023-04-06T06:35:47;8.38;;;6.70;;
6953;SDS011;3516;47.980;8.808;2023-04-06T06:38:16;9.75;;;6.28;;
6953;SDS011;3516;47.980;8.808;2023-04-06T06:40:44;9.68;;;7.78;;
6953;SDS011;3516;47.980;8.808;2023-04-06T06:43:12;11.25;;;7.40;;
6953;SDS011;3516;47.980;8.808;2023-04-06T06:45:39;7.95;;;7.00;;
6953;SDS011;3516;47.980;8.808;2023-04-06T06:48:07;10.57;;;7.88;;
6953;SDS011;3516;47.980;8.808;2023-04-06T06:50:34;16.35;;;8.40;;
6953;SDS011;3516;47.980;8.808;2023-04-06T06:53:02;13.50;;;6.93;;
6953;SDS011;3516;47.980;8.808;2023-04-06T06:55:30;9.77;;;7.43;;
6953;SDS011;3516;47.980;8.808;2023-04-06T06:57:57;12.05;;;7.38;;
6953;SDS011;3516;47.980;8.808;2023-04-06T07:00:24;7.55;;;6.40;;
6953;SDS011;3516;47.980;8.808;2023-04-06T07:02:51;11.85;;;7.13;;
6953;SDS011;3516;47.980;8.808;2023-04-06T07:05:19;8.57;;;6.93;;
6953;SDS011;3516;47.980;8.808;2023-04-06T07:07:46;12.45;;;7.47;;
6953;SDS011;3516;47.980;8.808;2023-04-06T07:10:15;13.45;;;8.30;;
6953;SDS011;3516;47.980;8.808;2023-04-06T07:12:43;10.80;;;7.40;;
6953;SDS011;3516;47.980;8.808;2023-04-06T07:15:11;8.13;;;6.88;;
6953;SDS011;3516;47.980;8.808;2023-04-06T07:17:38;10.25;;;7.57;;
6953;SDS011;3516;47.980;8.808;2023-04-06T07:20:06;9.38;;;7.00;;
6953;SDS011;3516;47.980;8.808;2023-04-06T07:22:33;10.65;;;6.68;;
6953;SDS011;3516;47.980;8.808;2023-04-06T07:25:00;9.10;;;6.90;;
6953;SDS011;3516;47.980;8.808;2023-04-06T07:27:29;6.60;;;5.88;;
6953;SDS011;3516;47.980;8.808;2023-04-06T07:29:56;10.35;;;6.97;;
6953;SDS011;3516;47.980;8.808;2023-04-06T07:32:23;9.73;;;6.90;;
6953;SDS011;3516;47.980;8.808;2023-04-06T07:34:51;9.82;;;7.15;;
6953;SDS011;3516;47.980;8.808;2023-04-06T07:37:18;7.07;;;5.35;;
6953;SDS011;3516;47.980;8.808;2023-04-06T07:39:45;13.63;;;8.48;;
6953;SDS011;3516;47.980;8.808;2023-04-06T07:42:12;11.60;;;7.05;;
6953;SDS011;3516;47.980;8.808;2023-04-06T07:44:40;10.90;;;6.82;;
6953;SDS011;3516;47.980;8.808;2023-04-06T07:47:07;8.77;;;7.53;;
6953;SDS011;3516;47.980;8.808;2023-04-06T07:49:34;7.63;;;6.53;;
6953;SDS011;3516;47.980;8.808;2023-04-06T07:52:01;8.50;;;6.88;;
6953;SDS011;3516;47.980;8.808;2023-04-06T07:54:28;8.20;;;6.85;;
6953;SDS011;3516;47.980;8.808;2023-04-06T07:56:55;10.30;;;7.18;;
6953;SDS011;3516;47.980;8.808;2023-04-06T07:59:22;11.02;;;6.95;;
6953;SDS011;3516;47.980;8.808;2023-04-06T08:01:51;9.93;;;6.90;;
6953;SDS011;3516;47.980;8.808;2023-04-06T08:04:18;10.00;;;6.85;;
6953;SDS011;3516;47.980;8.808;2023-04-06T08:06:45;10.15;;;6.25;;
6953;SDS011;3516;47.980;8.808;2023-04-06T08:09:12;8.93;;;6.25;;
6953;SDS011;3516;47.980;8.808;2023-04-06T08:11:39;10.75;;;7.75;;
6953;SDS011;3516;47.980;8.808;2023-04-06T08:14:06;9.40;;;6.57;;
6953;SDS011;3516;47.980;8.808;2023-04-06T08:16:33;11.05;;;6.78;;
6953;SDS011;3516;47.980;8.808;2023-04-06T08:19:01;12.68;;;6.60;;
6953;SDS011;3516;47.980;8.808;2023-04-06T08:21:29;7.43;;;6.22;;
6953;SDS011;3516;47.980;8.808;2023-04-06T08:23:56;8.18;;;6.53;;
6953;SDS011;3516;47.980;8.808;2023-04-06T08:26:23;6.80;;;5.68;;
6953;SDS011;3516;47.980;8.808;2023-04-06T08:28:50;6.85;;;6.10;;
6953;SDS011;3516;47.980;8.808;2023-04-06T08:31:17;8.48;;;6.00;;
6953;SDS011;3516;47.980;8.808;2023-04-06T08:33:44;5.63;;;5.07;;
6953;SDS011;3516;47.980;8.808;2023-04-06T08:36:13;6.30;;;5.15;;
6953;SDS011;3516;47.980;8.808;2023-04-06T08:38:41;5.05;;;4.63;;
6953;SDS011;3516;47.980;8.808;2023-04-06T08:41:09;6.47;;;4.93;;
6953;SDS011;3516;47.980;8.808;2023-04-06T08:43:38;5.60;;;5.03;;
6953;SDS011;3516;47.980;8.808;2023-04-06T08:46:07;5.00;;;4.53;;
6953;SDS011;3516;47.980;8.808;2023-04-06T08:48:35;4.88;;;4.38;;
6953;SDS011;3516;47.980;8.808;2023-04-06T08:51:02;3.90;;;3.60;;
6953;SDS011;3516;47.980;8.808;2023-04-06T08:53:31;5.28;;;4.10;;
6953;SDS011;3516;47.980;8.808;2023-04-06T08:55:58;6.28;;;4.82;;
6953;SDS011;3516;47.980;8.808;2023-04-06T08:58:26;3.70;;;3.40;;
6953;SDS011;3516;47.980;8.808;2023-04-06T09:00:54;5.00;;;4.32;;
6953;SDS011;3516;47.980;8.808;2023-04-06T09:03:21;5.40;;;3.60;;
6953;SDS011;3516;47.980;8.808;2023-04-06T09:05:48;5.13;;;4.00;;
6953;SDS011;3516;47.980;8.808;2023-04-06T09:08:16;3.55;;;3.20;;
6953;SDS011;3516;47.980;8.808;2023-04-06T09:10:44;4.40;;;3.78;;
6953;SDS011;3516;47.980;8.808;2023-04-06T09:13:11;4.07;;;3.78;;
6953;SDS011;3516;47.980;8.808;2023-04-06T09:15:38;4.97;;;4.47;;
6953;SDS011;3516;47.980;8.808;2023-04-06T09:18:05;4.90;;;4.25;;
6953;SDS011;3516;47.980;8.808;2023-04-06T09:20:33;4.18;;;3.88;;
6953;SDS011;3516;47.980;8.808;2023-04-06T09:23:00;4.45;;;4.05;;
6953;SDS011;3516;47.980;8.808;2023-04-06T09:25:27;5.93;;;4.85;;
6953;SDS011;3516;47.980;8.808;2023-04-06T09:28:00;4.72;;;4.20;;
6953;SDS011;3516;47.980;8.808;2023-04-06T09:30:28;6.22;;;4.70;;
6953;SDS011;3516;47.980;8.808;2023-04-06T09:32:55;4.32;;;3.97;;
6953;SDS011;3516;47.980;8.808;2023-04-06T09:35:24;4.15;;;3.75;;
6953;SDS011;3516;47.980;8.808;2023-04-06T09:37:52;6.97;;;3.80;;
6953;SDS011;3516;47.980;8.808;2023-04-06T09:40:20;4.13;;;3.78;;
6953;SDS011;3516;47.980;8.808;2023-04-06T09:42:47;3.80;;;3.50;;
6953;SDS011;3516;47.980;8.808;2023-04-06T09:45:16;5.60;;;4.22;;
6953;SDS011;3516;47.980;8.808;2023-04-06T09:47:44;4.75;;;4.07;;
6953;SDS011;3516;47.980;8.808;2023-04-06T09:50:12;4.50;;;4.10;;
6953;SDS011;3516;47.980;8.808;2023-04-06T09:52:40;4.10;;;3.80;;
6953;SDS011;3516;47.980;8.808;2023-04-06T09:55:08;4.45;;;3.53;;
6953;SDS011;3516;47.980;8.808;2023-04-06T09:57:37;5.07;;;4.63;;
6953;SDS011;3516;47.980;8.808;2023-04-06T10:00:05;6.07;;;4.93;;
6953;SDS011;3516;47.980;8.808;2023-04-06T10:02:38;4.63;;;4.22;;
6953;SDS011;3516;47.980;8.808;2023-04-06T10:05:08;4.88;;;4.38;;
6953;SDS011;3516;47.980;8.808;2023-04-06T10:07:36;4.50;;;4.10;;
6953;SDS011;3516;47.980;8.808;2023-04-06T10:10:03;4.25;;;3.83;;
6953;SDS011;3516;47.980;8.808;2023-04-06T10:12:30;5.07;;;4.38;;
6953;SDS011;3516;47.980;8.808;2023-04-06T10:14:58;4.45;;;4.05;;
6953;SDS011;3516;47.980;8.808;2023-04-06T10:17:25;4.57;;;4.28;;
6953;SDS011;3516;47.980;8.808;2023-04-06T10:19:54;6.25;;;4.80;;
6953;SDS011;3516;47.980;8.808;2023-04-06T10:22:23;4.78;;;4.38;;
6953;SDS011;3516;47.980;8.808;2023-04-06T10:24:51;4.93;;;4.43;;
6953;SDS011;3516;47.980;8.808;2023-04-06T10:27:27;6.15;;;4.72;;
6953;SDS011;3516;47.980;8.808;2023-04-06T10:29:54;5.15;;;4.63;;
6953;SDS011;3516;47.980;8.808;2023-04-06T10:32:31;4.28;;;3.97;;
6953;SDS011;3516;47.980;8.808;2023-04-06T10:35:05;5.63;;;4.30;;
6953;SDS011;3516;47.980;8.808;2023-04-06T10:37:45;4.45;;;4.05;;
6953;SDS011;3516;47.980;8.808;2023-04-06T10:40:17;4.03;;;3.72;;
6953;SDS011;3516;47.980;8.808;2023-04-06T10:42:45;3.90;;;3.60;;
6953;SDS011;3516;47.980;8.808;2023-04-06T10:45:19;4.13;;;3.83;;
6953;SDS011;3516;47.980;8.808;2023-04-06T10:47:47;4.43;;;4.03;;
6953;SDS011;3516;47.980;8.808;2023-04-06T10:50:16;4.45;;;3.95;;
6953;SDS011;3516;47.980;8.808;2023-04-06T10:52:44;4.85;;;4.20;;
6953;SDS011;3516;47.980;8.808;2023-04-06T10:55:12;4.43;;;4.03;;
6953;SDS011;3516;47.980;8.808;2023-04-06T10:57:40;4.53;;;4.13;;
6953;SDS011;3516;47.980;8.808;2023-04-06T11:00:07;4.55;;;4.20;;
6953;SDS011;3516;47.980;8.808;2023-04-06T11:02:35;5.07;;;4.57;;
6953;SDS011;3516;47.980;8.808;2023-04-06T11:05:04;5.93;;;5.05;;
6953;SDS011;3516;47.980;8.808;2023-04-06T11:07:33;6.22;;;4.70;;
6953;SDS011;3516;47.980;8.808;2023-04-06T11:10:00;6.45;;;5.03;;
6953;SDS011;3516;47.980;8.808;2023-04-06T11:12:27;5.03;;;4.63;;
6953;SDS011;3516;47.980;8.808;2023-04-06T11:14:56;7.55;;;5.07;;
6953;SDS011;3516;47.980;8.808;2023-04-06T11:17:29;5.50;;;4.80;;
6953;SDS011;3516;47.980;8.808;2023-04-06T11:19:57;4.78;;;4.28;;
6953;SDS011;3516;47.980;8.808;2023-04-06T11:22:25;4.95;;;3.70;;
6953;SDS011;3516;47.980;8.808;2023-04-06T11:25:04;4.70;;;4.07;;
6953;SDS011;3516;47.980;8.808;2023-04-06T11:27:31;4.65;;;4.25;;
6953;SDS011;3516;47.980;8.808;2023-04-06T11:29:59;4.57;;;3.97;;
6953;SDS011;3516;47.980;8.808;2023-04-06T11:32:26;5.05;;;3.78;;
6953;SDS011;3516;47.980;8.808;2023-04-06T11:34:53;3.92;;;3.65;;
6953;SDS011;3516;47.980;8.808;2023-04-06T11:37:20;3.35;;;3.15;;
6953;SDS011;3516;47.980;8.808;2023-04-06T11:39:48;4.63;;;4.10;;
6953;SDS011;3516;47.980;8.808;2023-04-06T11:42:23;3.88;;;3.58;;
6953;SDS011;3516;47.980;8.808;2023-04-06T11:44:51;3.15;;;2.95;;
6953;SDS011;3516;47.980;8.808;2023-04-06T11:47:19;4.10;;;3.78;;
6953;SDS011;3516;47.980;8.808;2023-04-06T11:49:47;4.13;;;3.83;;
6953;SDS011;3516;47.980;8.808;2023-04-06T11:52:15;5.07;;;4.15;;
6953;SDS011;3516;47.980;8.808;2023-04-06T11:54:43;4.95;;;4.25;;
6953;SDS011;3516;47.980;8.808;2023-04-06T11:57:10;4.20;;;3.90;;
6953;SDS011;3516;47.980;8.808;2023-04-06T11:59:38;6.95;;;5.20;;
6953;SDS011;3516;47.980;8.808;2023-04-06T12:02:05;26.42;;;5.30;;
6953;SDS011;3516;47.980;8.808;2023-04-06T12:04:32;3.05;;;2.45;;
6953;SDS011;3516;47.980;8.808;2023-04-06T12:06:59;3.03;;;2.80;;
6953;SDS011;3516;47.980;8.808;2023-04-06T12:09:26;2.97;;;2.67;;
6953;SDS011;3516;47.980;8.808;2023-04-06T12:11:53;3.45;;;2.25;;
6953;SDS011;3516;47.980;8.808;2023-04-06T12:14:20;2.45;;;1.90;;
6953;SDS011;3516;47.980;8.808;2023-04-06T12:16:49;2.22;;;2.13;;
6953;SDS011;3516;47.980;8.808;2023-04-06T12:19:16;1.88;;;1.77;;
6953;SDS011;3516;47.980;8.808;2023-04-06T12:21:42;2.40;;;2.28;;
6953;SDS011;3516;47.980;8.808;2023-04-06T12:24:09;2.65;;;2.50;;
6953;SDS011;3516;47.980;8.808;2023-04-06T12:26:36;2.08;;;1.98;;
6953;SDS011;3516;47.980;8.808;2023-04-06T12:29:03;1.90;;;1.80;;
6953;SDS011;3516;47.980;8.808;2023-04-06T12:31:32;1.10;;;1.10;;
6953;SDS011;3516;47.980;8.808;2023-04-06T12:34:00;2.10;;;2.00;;
6953;SDS011;3516;47.980;8.808;2023-04-06T12:36:28;2.75;;;2.65;;
6953;SDS011;3516;47.980;8.808;2023-04-06T12:38:56;2.22;;;2.13;;
6953;SDS011;3516;47.980;8.808;2023-04-06T12:41:22;2.40;;;2.20;;
6953;SDS011;3516;47.980;8.808;2023-04-06T12:43:49;1.90;;;1.80;;
6953;SDS011;3516;47.980;8.808;2023-04-06T12:46:16;2.72;;;2.53;;
6953;SDS011;3516;47.980;8.808;2023-04-06T12:48:43;2.95;;;2.75;;
6953;SDS011;3516;47.980;8.808;2023-04-06T12:51:11;2.72;;;2.53;;
6953;SDS011;3516;47.980;8.808;2023-04-06T12:53:38;2.22;;;2.13;;
6953;SDS011;3516;47.980;8.808;2023-04-06T12:56:11;2.15;;;2.05;;
6953;SDS011;3516;47.980;8.808;2023-04-06T12:58:39;2.63;;;2.42;;
6953;SDS011;3516;47.980;8.808;2023-04-06T13:01:06;2.00;;;1.90;;
6953;SDS011;3516;47.980;8.808;2023-04-06T13:03:33;2.10;;;2.00;;
6953;SDS011;3516;47.980;8.808;2023-04-06T13:06:01;3.03;;;2.72;;
6953;SDS011;3516;47.980;8.808;2023-04-06T13:08:31;3.13;;;2.92;;
6953;SDS011;3516;47.980;8.808;2023-04-06T13:10:58;2.03;;;2.03;;
6953;SDS011;3516;47.980;8.808;2023-04-06T13:13:25;2.00;;;1.85;;
6953;SDS011;3516;47.980;8.808;2023-04-06T13:15:52;1.98;;;1.88;;
6953;SDS011;3516;47.980;8.808;2023-04-06T13:18:20;1.90;;;1.77;;
6953;SDS011;3516;47.980;8.808;2023-04-06T13:20:47;1.10;;;1.10;;
6953;SDS011;3516;47.980;8.808;2023-04-06T13:23:15;1.63;;;1.60;;
6953;SDS011;3516;47.980;8.808;2023-04-06T13:25:43;1.70;;;1.70;;
6953;SDS011;3516;47.980;8.808;2023-04-06T13:28:10;1.80;;;1.80;;
6953;SDS011;3516;47.980;8.808;2023-04-06T13:30:37;2.80;;;2.60;;
6953;SDS011;3516;47.980;8.808;2023-04-06T13:33:04;3.20;;;3.00;;
6953;SDS011;3516;47.980;8.808;2023-04-06T13:35:31;3.08;;;2.40;;
6953;SDS011;3516;47.980;8.808;2023-04-06T13:37:58;3.25;;;3.00;;
6953;SDS011;3516;47.980;8.808;2023-04-06T13:40:25;2.05;;;1.95;;
6953;SDS011;3516;47.980;8.808;2023-04-06T13:42:53;1.58;;;1.58;;
6953;SDS011;3516;47.980;8.808;2023-04-06T14:13:46;2.08;;;1.98;;
6953;SDS011;3516;47.980;8.808;2023-04-06T14:16:13;1.60;;;1.50;;
6953;SDS011;3516;47.980;8.808;2023-04-06T14:18:40;2.63;;;1.95;;
6953;SDS011;3516;47.980;8.808;2023-04-06T14:21:07;1.45;;;1.40;;
6953;SDS011;3516;47.980;8.808;2023-04-06T14:23:34;3.50;;;3.20;;
6953;SDS011;3516;47.980;8.808;2023-04-06T14:26:01;2.70;;;2.33;;
6953;SDS011;3516;47.980;8.808;2023-04-06T14:28:29;3.50;;;3.03;;
6953;SDS011;3516;47.980;8.808;2023-04-06T14:30:58;2.85;;;2.65;;
6953;SDS011;3516;47.980;8.808;2023-04-06T14:33:25;3.00;;;2.70;;
6953;SDS011;3516;47.980;8.808;2023-04-06T14:35:52;2.72;;;2.53;;
6953;SDS011;3516;47.980;8.808;2023-04-06T14:38:18;1.77;;;1.67;;
6953;SDS011;3516;47.980;8.808;2023-04-06T14:40:45;1.80;;;1.70;;
6953;SDS011;3516;47.980;8.808;2023-04-06T14:43:12;2.03;;;1.90;;
6953;SDS011;3516;47.980;8.808;2023-04-06T14:45:40;1.75;;;1.63;;
6953;SDS011;3516;47.980;8.808;2023-04-06T14:48:08;1.83;;;1.73;;
6953;SDS011;3516;47.980;8.808;2023-04-06T14:50:36;1.40;;;1.40;;
6953;SDS011;3516;47.980;8.808;2023-04-06T14:53:04;2.08;;;1.75;;
6953;SDS011;3516;47.980;8.808;2023-04-06T14:55:30;1.75;;;1.65;;
6953;SDS011;3516;47.980;8.808;2023-04-06T14:57:57;1.67;;;1.58;;
6953;SDS011;3516;47.980;8.808;2023-04-06T15:00:24;1.90;;;1.80;;
6953;SDS011;3516;47.980;8.808;2023-04-06T15:02:51;1.65;;;1.42;;
6953;SDS011;3516;47.980;8.808;2023-04-06T15:05:19;1.55;;;1.45;;
6953;SDS011;3516;47.980;8.808;2023-04-06T15:07:46;2.42;;;2.20;;
6953;SDS011;3516;47.980;8.808;2023-04-06T15:10:12;2.28;;;2.17;;
6953;SDS011;3516;47.980;8.808;2023-04-06T15:12:39;1.70;;;1.60;;
6953;SDS011;3516;47.980;8.808;2023-04-06T15:15:06;1.63;;;1.63;;
6953;SDS011;3516;47.980;8.808;2023-04-06T15:17:34;2.20;;;2.10;;
6953;SDS011;3516;47.980;8.808;2023-04-06T15:20:00;2.28;;;2.08;;
6953;SDS011;3516;47.980;8.808;2023-04-06T15:22:29;1.40;;;1.40;;
6953;SDS011;3516;47.980;8.808;2023-04-06T15:24:55;1.90;;;1.80;;
6953;SDS011;3516;47.980;8.808;2023-04-06T15:27:23;1.90;;;1.80;;
6953;SDS011;3516;47.980;8.808;2023-04-06T15:29:50;2.55;;;1.80;;
6953;SDS011;3516;47.980;8.808;2023-04-06T15:32:16;4.30;;;2.10;;
6953;SDS011;3516;47.980;8.808;2023-04-06T15:34:43;4.63;;;3.25;;
6953;SDS011;3516;47.980;8.808;2023-04-06T15:37:10;2.58;;;2.38;;
6953;SDS011;3516;47.980;8.808;2023-04-06T15:39:38;2.03;;;1.92;;
6953;SDS011;3516;47.980;8.808;2023-04-06T15:42:05;4.13;;;3.67;;
6953;SDS011;3516;47.980;8.808;2023-04-06T15:44:31;2.15;;;1.95;;
6953;SDS011;3516;47.980;8.808;2023-04-06T15:46:58;1.77;;;1.67;;
6953;SDS011;3516;47.980;8.808;2023-04-06T15:49:25;4.13;;;2.15;;
6953;SDS011;3516;47.980;8.808;2023-04-06T15:51:51;1.70;;;1.70;;
6953;SDS011;3516;47.980;8.808;2023-04-06T15:54:18;1.38;;;1.27;;
6953;SDS011;3516;47.980;8.808;2023-04-06T15:56:47;1.83;;;1.73;;
6953;SDS011;3516;47.980;8.808;2023-04-06T15:59:15;1.65;;;1.55;;
6953;SDS011;3516;47.980;8.808;2023-04-06T16:01:42;1.60;;;1.60;;
6953;SDS011;3516;47.980;8.808;2023-04-06T16:04:09;2.42;;;2.10;;
6953;SDS011;3516;47.980;8.808;2023-04-06T16:06:36;2.22;;;1.67;;
6953;SDS011;3516;47.980;8.808;2023-04-06T16:09:02;1.80;;;1.67;;
6953;SDS011;3516;47.980;8.808;2023-04-06T16:11:29;1.50;;;1.42;;
6953;SDS011;3516;47.980;8.808;2023-04-06T16:13:58;1.88;;;1.65;;
6953;SDS011;3516;47.980;8.808;2023-04-06T16:16:25;1.40;;;1.40;;
6953;SDS011;3516;47.980;8.808;2023-04-06T16:18:52;1.83;;;1.70;;
6953;SDS011;3516;47.980;8.808;2023-04-06T16:21:18;1.30;;;1.30;;
6953;SDS011;3516;47.980;8.808;2023-04-06T16:23:46;1.80;;;1.70;;
6953;SDS011;3516;47.980;8.808;2023-04-06T16:26:13;1.83;;;1.73;;
6953;SDS011;3516;47.980;8.808;2023-04-06T16:28:41;1.40;;;1.30;;
6953;SDS011;3516;47.980;8.808;2023-04-06T16:31:16;1.33;;;1.33;;
6953;SDS011;3516;47.980;8.808;2023-04-06T16:33:45;1.20;;;1.10;;
6953;SDS011;3516;47.980;8.808;2023-04-06T16:36:11;1.73;;;1.40;;
6953;SDS011;3516;47.980;8.808;2023-04-06T16:38:38;1.55;;;1.48;;
6953;SDS011;3516;47.980;8.808;2023-04-06T16:41:05;1.17;;;1.17;;
6953;SDS011;3516;47.980;8.808;2023-04-06T16:43:31;1.10;;;1.10;;
6953;SDS011;3516;47.980;8.808;2023-04-06T16:45:58;1.20;;;1.20;;
6953;SDS011;3516;47.980;8.808;2023-04-06T16:48:26;1.42;;;1.33;;
6953;SDS011;3516;47.980;8.808;2023-04-06T16:50:53;1.42;;;1.42;;
6953;SDS011;3516;47.980;8.808;2023-04-06T16:53:20;1.45;;;1.35;;
6953;SDS011;3516;47.980;8.808;2023-04-06T16:55:47;1.50;;;1.40;;
6953;SDS011;3516;47.980;8.808;2023-04-06T16:58:13;1.27;;;1.27;;
6953;SDS011;3516;47.980;8.808;2023-04-06T17:00:40;1.38;;;1.27;;
6953;SDS011;3516;47.980;8.808;2023-04-06T17:03:07;1.00;;;1.00;;
6953;SDS011;3516;47.980;8.808;2023-04-06T17:05:35;1.50;;;1.30;;
6953;SDS011;3516;47.980;8.808;2023-04-06T17:08:02;1.40;;;1.30;;
6953;SDS011;3516;47.980;8.808;2023-04-06T17:10:28;1.10;;;1.10;;
6953;SDS011;3516;47.980;8.808;2023-04-06T17:12:55;1.17;;;1.17;;
6953;SDS011;3516;47.980;8.808;2023-04-06T17:15:22;1.13;;;1.13;;
6953;SDS011;3516;47.980;8.808;2023-04-06T17:17:50;1.38;;;1.27;;
6953;SDS011;3516;47.980;8.808;2023-04-06T17:20:18;1.48;;;1.38;;
6953;SDS011;3516;47.980;8.808;2023-04-06T17:22:46;1.00;;;0.75;;
6953;SDS011;3516;47.980;8.808;2023-04-06T17:25:13;1.20;;;1.10;;
6953;SDS011;3516;47.980;8.808;2023-04-06T17:27:41;1.10;;;1.10;;
6953;SDS011;3516;47.980;8.808;2023-04-06T17:30:08;1.48;;;1.27;;
6953;SDS011;3516;47.980;8.808;2023-04-06T17:32:35;1.77;;;1.67;;
6953;SDS011;3516;47.980;8.808;2023-04-06T17:35:02;1.10;;;1.10;;
6953;SDS011;3516;47.980;8.808;2023-04-06T17:37:30;1.10;;;1.00;;
6953;SDS011;3516;47.980;8.808;2023-04-06T17:39:58;1.05;;;1.05;;
6953;SDS011;3516;47.980;8.808;2023-04-06T17:42:25;0.90;;;0.90;;
6953;SDS011;3516;47.980;8.808;2023-04-06T17:44:51;0.80;;;0.80;;
6953;SDS011;3516;47.980;8.808;2023-04-06T17:47:18;0.82;;;0.82;;
6953;SDS011;3516;47.980;8.808;2023-04-06T17:49:45;1.67;;;0.90;;
6953;SDS011;3516;47.980;8.808;2023-04-06T17:52:13;0.80;;;0.80;;
6953;SDS011;3516;47.980;8.808;2023-04-06T17:54:39;0.80;;;0.80;;
6953;SDS011;3516;47.980;8.808;2023-04-06T17:57:07;1.02;;;1.02;;
6953;SDS011;3516;47.980;8.808;2023-04-06T17:59:34;0.57;;;0.57;;
6953;SDS011;3516;47.980;8.808;2023-04-06T18:02:01;0.80;;;0.80;;
6953;SDS011;3516;47.980;8.808;2023-04-06T18:04:28;0.80;;;0.80;;
6953;SDS011;3516;47.980;8.808;2023-04-06T18:06:56;0.70;;;0.70;;
6953;SDS011;3516;47.980;8.808;2023-04-06T18:09:23;0.73;;;0.73;;
6953;SDS011;3516;47.980;8.808;2023-04-06T18:11:50;0.70;;;0.70;;
6953;SDS011;3516;47.980;8.808;2023-04-06T18:14:18;0.57;;;0.57;;
6953;SDS011;3516;47.980;8.808;2023-04-06T18:16:45;0.90;;;0.90;;
6953;SDS011;3516;47.980;8.808;2023-04-06T18:19:11;1.30;;;1.20;;
6953;SDS011;3516;47.980;8.808;2023-04-06T18:21:38;1.00;;;1.00;;
6953;SDS011;3516;47.980;8.808;2023-04-06T18:24:06;0.95;;;0.95;;
6953;SDS011;3516;47.980;8.808;2023-04-06T18:26:33;1.00;;;1.00;;
6953;SDS011;3516;47.980;8.808;2023-04-06T18:29:00;1.00;;;1.00;;
6953;SDS011;3516;47.980;8.808;2023-04-06T18:31:29;0.70;;;0.70;;
6953;SDS011;3516;47.980;8.808;2023-04-06T18:33:55;0.80;;;0.80;;
6953;SDS011;3516;47.980;8.808;2023-04-06T18:36:22;1.00;;;1.00;;
6953;SDS011;3516;47.980;8.808;2023-04-06T18:38:49;0.55;;;0.55;;
6953;SDS011;3516;47.980;8.808;2023-04-06T18:41:16;0.95;;;0.95;;
6953;SDS011;3516;47.980;8.808;2023-04-06T18:43:44;0.80;;;0.80;;
6953;SDS011;3516;47.980;8.808;2023-04-06T18:46:11;1.10;;;1.02;;
6953;SDS011;3516;47.980;8.808;2023-04-06T18:48:41;0.60;;;0.60;;
6953;SDS011;3516;47.980;8.808;2023-04-06T18:51:08;0.75;;;0.60;;
6953;SDS011;3516;47.980;8.808;2023-04-06T18:53:35;0.85;;;0.85;;
6953;SDS011;3516;47.980;8.808;2023-04-06T18:56:02;0.70;;;0.70;;
6953;SDS011;3516;47.980;8.808;2023-04-06T18:58:37;1.00;;;1.00;;
6953;SDS011;3516;47.980;8.808;2023-04-06T19:01:06;0.90;;;0.90;;
6953;SDS011;3516;47.980;8.808;2023-04-06T19:03:33;0.73;;;0.73;;
6953;SDS011;3516;47.980;8.808;2023-04-06T19:06:01;1.20;;;1.20;;
6953;SDS011;3516;47.980;8.808;2023-04-06T19:08:30;1.30;;;1.30;;
6953;SDS011;3516;47.980;8.808;2023-04-06T19:10:56;1.17;;;1.17;;
6953;SDS011;3516;47.980;8.808;2023-04-06T19:13:23;1.00;;;1.00;;
6953;SDS011;3516;47.980;8.808;2023-04-06T19:15:51;1.27;;;1.25;;
6953;SDS011;3516;47.980;8.808;2023-04-06T19:18:17;1.00;;;1.00;;
6953;SDS011;3516;47.980;8.808;2023-04-06T19:20:44;1.20;;;1.10;;
6953;SDS011;3516;47.980;8.808;2023-04-06T19:23:12;1.23;;;1.23;;
6953;SDS011;3516;47.980;8.808;2023-04-06T19:25:41;1.48;;;1.40;;
6953;SDS011;3516;47.980;8.808;2023-04-06T19:28:08;2.92;;;1.65;;
6953;SDS011;3516;47.980;8.808;2023-04-06T19:30:34;3.30;;;3.10;;
6953;SDS011;3516;47.980;8.808;2023-04-06T19:33:01;2.47;;;2.28;;
6953;SDS011;3516;47.980;8.808;2023-04-06T19:35:28;2.28;;;2.17;;
6953;SDS011;3516;47.980;8.808;2023-04-06T19:37:55;2.15;;;2.03;;
6953;SDS011;3516;47.980;8.808;2023-04-06T19:40:23;1.80;;;1.70;;
6953;SDS011;3516;47.980;8.808;2023-04-06T19:42:50;1.65;;;1.65;;
6953;SDS011;3516;47.980;8.808;2023-04-06T19:45:17;2.10;;;2.00;;
6953;SDS011;3516;47.980;8.808;2023-04-06T19:47:43;1.77;;;1.77;;
6953;SDS011;3516;47.980;8.808;2023-04-06T19:50:10;2.10;;;2.00;;
6953;SDS011;3516;47.980;8.808;2023-04-06T19:52:37;2.17;;;2.00;;
6953;SDS011;3516;47.980;8.808;2023-04-06T19:55:04;2.20;;;2.10;;
6953;SDS011;3516;47.980;8.808;2023-04-06T19:57:32;2.47;;;2.38;;
6953;SDS011;3516;47.980;8.808;2023-04-06T19:59:59;1.98;;;1.88;;
6953;SDS011;3516;47.980;8.808;2023-04-06T20:02:26;2.22;;;2.13;;
6953;SDS011;3516;47.980;8.808;2023-04-06T20:04:53;1.92;;;1.83;;
6953;SDS011;3516;47.980;8.808;2023-04-06T20:07:19;1.70;;;1.60;;
6953;SDS011;3516;47.980;8.808;2023-04-06T20:09:46;1.73;;;1.70;;
6953;SDS011;3516;47.980;8.808;2023-04-06T20:12:13;2.05;;;1.92;;
6953;SDS011;3516;47.980;8.808;2023-04-06T20:14:41;2.10;;;2.00;;
6953;SDS011;3516;47.980;8.808;2023-04-06T20:17:07;1.55;;;1.52;;
6953;SDS011;3516;47.980;8.808;2023-04-06T20:19:34;1.75;;;1.75;;
6953;SDS011;3516;47.980;8.808;2023-04-06T20:22:01;2.00;;;1.90;;
6953;SDS011;3516;47.980;8.808;2023-04-06T20:24:28;2.20;;;2.00;;
6953;SDS011;3516;47.980;8.808;2023-04-06T20:26:55;1.77;;;1.67;;
6953;SDS011;3516;47.980;8.808;2023-04-06T20:29:22;1.90;;;1.80;;
6953;SDS011;3516;47.980;8.808;2023-04-06T20:31:50;2.38;;;2.20;;
6953;SDS011;3516;47.980;8.808;2023-04-06T20:34:17;2.60;;;2.40;;
6953;SDS011;3516;47.980;8.808;2023-04-06T20:36:44;2.97;;;2.75;;